createdAt,value
2017-11-10T00:01:19.653Z,6.50
2017-11-10T00:03:47.878Z,6.60
2017-11-10T00:06:15.386Z,6.50
2017-11-10T00:08:43.631Z,6.40
2017-11-10T00:11:11.136Z,6.50
2017-11-10T00:13:39.356Z,6.60
2017-11-10T00:16:06.841Z,6.50
2017-11-10T00:18:35.091Z,6.60
2017-11-10T00:21:02.568Z,6.60
2017-11-10T00:23:30.036Z,6.60
2017-11-10T00:25:58.348Z,6.60
2017-11-10T00:28:25.815Z,6.60
2017-11-10T00:30:53.290Z,6.60
2017-11-10T00:33:20.765Z,6.60
2017-11-10T00:35:49.752Z,6.60
2017-11-10T00:38:17.224Z,6.60
2017-11-10T00:40:44.701Z,6.60
2017-11-10T00:43:12.942Z,6.60
2017-11-10T00:45:40.400Z,6.60
2017-11-10T00:48:07.877Z,6.60
2017-11-10T00:50:36.111Z,6.60
2017-11-10T00:53:09.417Z,6.50
2017-11-10T00:55:36.894Z,6.50
2017-11-10T00:58:04.397Z,6.60
2017-11-10T01:00:31.861Z,6.50
2017-11-10T01:02:59.340Z,6.50
2017-11-10T01:05:26.810Z,6.40
2017-11-10T01:07:56.213Z,6.40
2017-11-10T01:10:23.688Z,6.40
2017-11-10T01:12:51.253Z,6.20
2017-11-10T01:15:18.728Z,6.30
2017-11-10T01:17:46.981Z,6.20
2017-11-10T01:20:14.467Z,6.20
2017-11-10T01:22:42.712Z,6.10
2017-11-10T01:25:10.189Z,6.10
2017-11-10T01:27:38.444Z,6.10
2017-11-10T01:30:05.922Z,6.10
2017-11-10T01:32:34.185Z,6.10
2017-11-10T01:35:01.652Z,6.10
2017-11-10T01:37:29.917Z,6.00
2017-11-10T01:39:57.400Z,6.00
2017-11-10T01:42:25.645Z,5.90
2017-11-10T01:44:53.125Z,6.00
2017-11-10T01:47:21.367Z,6.00
2017-11-10T01:49:54.317Z,6.00
2017-11-10T01:52:21.796Z,6.00
2017-11-10T01:54:49.285Z,6.00
2017-11-10T01:57:16.789Z,5.90
2017-11-10T01:59:44.283Z,6.00
2017-11-10T02:02:11.753Z,5.90
2017-11-10T02:04:39.245Z,5.90
2017-11-10T02:07:06.728Z,5.80
2017-11-10T02:09:35.901Z,5.80
2017-11-10T02:12:03.384Z,5.70
2017-11-10T02:14:30.886Z,5.80
2017-11-10T02:16:58.396Z,5.80
2017-11-10T02:19:25.883Z,5.70
2017-11-10T02:21:53.368Z,5.70
2017-11-10T02:24:20.877Z,5.80
2017-11-10T02:26:48.356Z,5.70
2017-11-10T02:29:15.830Z,5.60
2017-11-10T02:31:44.070Z,5.70
2017-11-10T02:34:13.511Z,5.70
2017-11-10T02:36:40.987Z,5.70
2017-11-10T02:39:09.216Z,5.70
2017-11-10T02:41:36.702Z,5.70
2017-11-10T02:44:04.175Z,5.60
2017-11-10T02:46:32.433Z,5.50
2017-11-10T02:48:59.924Z,5.50
2017-11-10T02:51:28.176Z,5.60
2017-11-10T02:53:55.660Z,5.60
2017-11-10T02:56:23.142Z,5.60
2017-11-10T02:58:50.632Z,5.60
2017-11-10T03:01:18.209Z,5.60
2017-11-10T03:03:45.692Z,5.60
2017-11-10T03:06:13.197Z,5.60
2017-11-10T03:08:40.668Z,5.40
2017-11-10T03:11:08.144Z,5.40
2017-11-10T03:13:36.385Z,5.50
2017-11-10T03:16:03.866Z,5.50
2017-11-10T03:18:32.163Z,5.60
2017-11-10T03:21:00.417Z,5.60
2017-11-10T03:23:27.872Z,5.60
2017-11-10T03:25:55.349Z,5.60
2017-11-10T03:28:23.593Z,5.70
2017-11-10T03:30:51.075Z,5.70
2017-11-10T03:33:18.548Z,5.70
2017-11-10T03:35:46.789Z,5.80
2017-11-10T03:38:14.275Z,5.70
2017-11-10T03:40:42.534Z,5.70
2017-11-10T03:43:10.000Z,5.70
2017-11-10T03:45:37.562Z,5.80
2017-11-10T03:48:05.023Z,5.80
2017-11-10T03:50:33.264Z,5.90
2017-11-10T03:53:00.741Z,5.80
2017-11-10T03:55:28.217Z,5.80
2017-11-10T03:57:56.482Z,5.90
2017-11-10T04:00:23.960Z,5.90
2017-11-10T04:02:52.236Z,5.90
2017-11-10T04:05:20.970Z,5.80
2017-11-10T04:07:48.446Z,5.80
2017-11-10T04:10:15.913Z,5.90
2017-11-10T04:12:43.422Z,5.90
2017-11-10T04:15:10.909Z,6.00
2017-11-10T04:17:38.389Z,5.90
2017-11-10T04:20:05.868Z,6.00
2017-11-10T04:22:34.111Z,5.90
2017-11-10T04:25:01.591Z,5.90
2017-11-10T04:27:29.854Z,5.90
2017-11-10T04:29:57.313Z,5.90
2017-11-10T04:32:24.821Z,6.00
2017-11-10T04:34:52.290Z,6.00
2017-11-10T04:37:19.746Z,5.90
2017-11-10T04:39:47.233Z,5.90
2017-11-10T04:42:14.711Z,6.00
2017-11-10T04:44:42.211Z,6.00
2017-11-10T04:47:09.677Z,5.90
2017-11-10T04:49:37.158Z,5.90
2017-11-10T04:52:04.634Z,5.90
2017-11-10T04:54:32.119Z,6.00
2017-11-10T04:56:59.602Z,5.90
2017-11-10T04:59:27.115Z,5.90
2017-11-10T05:01:55.348Z,6.00
2017-11-10T05:04:22.835Z,6.00
2017-11-10T05:06:51.081Z,6.00
2017-11-10T05:09:18.578Z,6.00
2017-11-10T05:11:46.048Z,6.00
2017-11-10T05:14:14.301Z,6.00
2017-11-10T05:16:41.765Z,6.00
2017-11-10T05:19:09.273Z,6.00
2017-11-10T05:21:36.742Z,6.10
2017-11-10T05:24:04.224Z,6.00
2017-11-10T05:26:31.707Z,6.00
2017-11-10T05:28:59.945Z,6.10
2017-11-10T05:31:27.425Z,6.10
2017-11-10T05:33:54.907Z,6.10
2017-11-10T05:36:23.195Z,6.10
2017-11-10T05:38:50.674Z,6.10
2017-11-10T05:41:18.185Z,6.10
2017-11-10T05:43:45.678Z,6.10
2017-11-10T05:46:13.165Z,6.10
2017-11-10T05:48:40.636Z,6.10
2017-11-10T05:51:08.116Z,6.10
2017-11-10T05:53:35.595Z,6.00
2017-11-10T05:56:03.833Z,6.00
2017-11-10T05:58:31.310Z,6.00
2017-11-10T06:01:03.382Z,6.00
2017-11-10T06:03:31.629Z,6.00
2017-11-10T06:05:59.114Z,6.00
2017-11-10T06:08:27.362Z,5.90
2017-11-10T06:10:54.864Z,5.90
2017-11-10T06:13:23.114Z,6.00
2017-11-10T06:15:50.686Z,6.00
2017-11-10T06:18:18.922Z,6.00
2017-11-10T06:20:46.403Z,6.00
2017-11-10T06:23:13.868Z,6.00
2017-11-10T06:25:42.141Z,6.10
2017-11-10T06:28:09.616Z,6.10
2017-11-10T06:30:37.949Z,6.00
2017-11-10T06:33:05.429Z,6.00
2017-11-10T06:35:32.914Z,6.00
2017-11-10T06:38:01.165Z,6.00
2017-11-10T06:40:28.637Z,6.00
2017-11-10T06:42:56.932Z,6.10
2017-11-10T06:45:24.412Z,6.10
2017-11-10T06:47:51.902Z,6.00
2017-11-10T06:50:19.376Z,6.00
2017-11-10T06:52:47.633Z,6.10
2017-11-10T06:55:15.110Z,6.10
2017-11-10T06:57:42.672Z,6.10
2017-11-10T07:00:10.145Z,6.10
2017-11-10T07:02:38.413Z,6.00
2017-11-10T07:05:06.658Z,6.10
2017-11-10T07:07:40.073Z,6.00
2017-11-10T07:10:07.588Z,6.10
2017-11-10T07:12:35.098Z,6.50
2017-11-10T07:15:03.358Z,6.40
2017-11-10T07:17:30.848Z,6.40
2017-11-10T07:20:01.333Z,6.40
2017-11-10T07:22:28.865Z,6.40
2017-11-10T07:24:56.349Z,6.40
2017-11-10T07:27:23.848Z,6.30
2017-11-10T07:29:51.341Z,6.30
2017-11-10T07:32:18.825Z,6.30
2017-11-10T07:34:46.308Z,6.20
2017-11-10T07:37:14.556Z,6.20
2017-11-10T07:39:42.037Z,6.20
2017-11-10T07:42:09.649Z,6.20
2017-11-10T07:44:37.151Z,6.30
2017-11-10T07:47:04.634Z,6.20
2017-11-10T07:49:32.993Z,6.30
2017-11-10T07:52:01.255Z,6.30
2017-11-10T07:54:28.753Z,6.30
2017-11-10T07:56:56.243Z,6.30
2017-11-10T07:59:23.718Z,6.40
2017-11-10T08:01:51.198Z,6.30
2017-11-10T08:04:18.693Z,6.30
2017-11-10T08:06:46.182Z,6.40
2017-11-10T08:09:13.690Z,6.30
2017-11-10T08:11:41.189Z,6.40
2017-11-10T08:14:08.682Z,6.40
2017-11-10T08:16:36.166Z,6.30
2017-11-10T08:19:05.429Z,6.30
2017-11-10T08:21:32.906Z,6.30
2017-11-10T08:24:00.429Z,6.30
2017-11-10T08:26:27.902Z,6.40
2017-11-10T08:28:55.374Z,6.40
2017-11-10T08:31:22.851Z,6.40
2017-11-10T08:33:51.115Z,6.30
2017-11-10T08:36:19.397Z,6.20
2017-11-10T08:38:47.645Z,6.30
2017-11-10T08:41:15.240Z,6.30
2017-11-10T08:43:43.482Z,6.10
2017-11-10T08:46:10.956Z,6.10
2017-11-10T08:48:39.733Z,6.20
2017-11-10T08:51:07.236Z,6.20
2017-11-10T08:53:35.502Z,6.60
2017-11-10T08:56:03.364Z,6.60
2017-11-10T08:58:31.621Z,6.60
